sensor_id;sensor_type;location;lat;lon;timestamp;P1;durP1;ratioP1;P2;durP2;ratioP2
18838;SDS011;9548;56.920;14.804;2023-06-10T00:00:48;1.05;;;0.70;;
18838;SDS011;9548;56.920;14.804;2023-06-10T00:03:15;1.33;;;0.30;;
18838;SDS011;9548;56.920;14.804;2023-06-10T00:05:43;2.08;;;0.32;;
18838;SDS011;9548;56.920;14.804;2023-06-10T00:08:09;0.82;;;0.22;;
18838;SDS011;9548;56.920;14.804;2023-06-10T00:10:38;4.57;;;0.32;;
18838;SDS011;9548;56.920;14.804;2023-06-10T00:13:05;0.47;;;0.20;;
18838;SDS011;9548;56.920;14.804;2023-06-10T00:15:34;0.85;;;0.30;;
18838;SDS011;9548;56.920;14.804;2023-06-10T00:18:01;1.33;;;0.30;;
18838;SDS011;9548;56.920;14.804;2023-06-10T00:20:28;2.13;;;0.40;;
18838;SDS011;9548;56.920;14.804;2023-06-10T00:22:55;2.30;;;0.30;;
18838;SDS011;9548;56.920;14.804;2023-06-10T00:25:24;1.15;;;0.55;;
18838;SDS011;9548;56.920;14.804;2023-06-10T00:27:53;1.38;;;0.40;;
18838;SDS011;9548;56.920;14.804;2023-06-10T00:30:20;2.53;;;0.30;;
18838;SDS011;9548;56.920;14.804;2023-06-10T00:32:47;0.63;;;0.30;;
18838;SDS011;9548;56.920;14.804;2023-06-10T00:35:14;0.73;;;0.20;;
18838;SDS011;9548;56.920;14.804;2023-06-10T00:37:41;0.85;;;0.40;;
18838;SDS011;9548;56.920;14.804;2023-06-10T00:40:08;3.03;;;0.30;;
18838;SDS011;9548;56.920;14.804;2023-06-10T00:42:36;2.90;;;0.30;;
18838;SDS011;9548;56.920;14.804;2023-06-10T00:45:05;0.70;;;0.38;;
18838;SDS011;9548;56.920;14.804;2023-06-10T00:47:32;1.55;;;0.60;;
18838;SDS011;9548;56.920;14.804;2023-06-10T00:50:00;0.70;;;0.30;;
18838;SDS011;9548;56.920;14.804;2023-06-10T00:52:28;0.93;;;0.28;;
18838;SDS011;9548;56.920;14.804;2023-06-10T00:54:55;1.17;;;0.30;;
18838;SDS011;9548;56.920;14.804;2023-06-10T00:57:24;2.55;;;0.40;;
18838;SDS011;9548;56.920;14.804;2023-06-10T00:59:51;1.65;;;0.30;;
18838;SDS011;9548;56.920;14.804;2023-06-10T01:02:19;0.40;;;0.40;;
18838;SDS011;9548;56.920;14.804;2023-06-10T01:04:47;2.67;;;0.30;;
18838;SDS011;9548;56.920;14.804;2023-06-10T01:07:15;0.85;;;0.50;;
18838;SDS011;9548;56.920;14.804;2023-06-10T01:09:50;1.58;;;0.30;;
18838;SDS011;9548;56.920;14.804;2023-06-10T01:12:24;1.02;;;0.40;;
18838;SDS011;9548;56.920;14.804;2023-06-10T01:14:58;0.85;;;0.40;;
18838;SDS011;9548;56.920;14.804;2023-06-10T01:17:27;2.15;;;0.47;;
18838;SDS011;9548;56.920;14.804;2023-06-10T01:19:55;0.45;;;0.38;;
18838;SDS011;9548;56.920;14.804;2023-06-10T01:22:25;1.30;;;0.30;;
18838;SDS011;9548;56.920;14.804;2023-06-10T01:24:53;0.50;;;0.30;;
18838;SDS011;9548;56.920;14.804;2023-06-10T01:27:23;0.20;;;0.20;;
18838;SDS011;9548;56.920;14.804;2023-06-10T01:29:54;2.63;;;0.30;;
18838;SDS011;9548;56.920;14.804;2023-06-10T01:32:28;1.00;;;0.30;;
18838;SDS011;9548;56.920;14.804;2023-06-10T01:34:59;0.80;;;0.32;;
18838;SDS011;9548;56.920;14.804;2023-06-10T01:37:29;2.28;;;0.30;;
18838;SDS011;9548;56.920;14.804;2023-06-10T01:39:58;0.63;;;0.32;;
18838;SDS011;9548;56.920;14.804;2023-06-10T01:42:26;1.80;;;0.40;;
18838;SDS011;9548;56.920;14.804;2023-06-10T01:44:54;2.10;;;0.73;;
18838;SDS011;9548;56.920;14.804;2023-06-10T01:47:21;1.02;;;0.50;;
18838;SDS011;9548;56.920;14.804;2023-06-10T01:49:48;1.45;;;0.35;;
18838;SDS011;9548;56.920;14.804;2023-06-10T01:52:15;0.85;;;0.38;;
18838;SDS011;9548;56.920;14.804;2023-06-10T01:54:43;1.63;;;0.40;;
18838;SDS011;9548;56.920;14.804;2023-06-10T01:57:10;0.30;;;0.30;;
18838;SDS011;9548;56.920;14.804;2023-06-10T01:59:37;1.95;;;0.50;;
18838;SDS011;9548;56.920;14.804;2023-06-10T02:02:04;0.93;;;0.40;;
18838;SDS011;9548;56.920;14.804;2023-06-10T02:04:31;1.63;;;0.43;;
18838;SDS011;9548;56.920;14.804;2023-06-10T02:06:58;8.30;;;0.50;;
18838;SDS011;9548;56.920;14.804;2023-06-10T02:09:29;1.05;;;0.40;;
18838;SDS011;9548;56.920;14.804;2023-06-10T02:11:57;1.23;;;0.43;;
18838;SDS011;9548;56.920;14.804;2023-06-10T02:14:24;1.00;;;0.30;;
18838;SDS011;9548;56.920;14.804;2023-06-10T02:16:51;1.27;;;0.60;;
18838;SDS011;9548;56.920;14.804;2023-06-10T02:19:21;2.00;;;0.73;;
18838;SDS011;9548;56.920;14.804;2023-06-10T02:21:48;0.93;;;0.30;;
18838;SDS011;9548;56.920;14.804;2023-06-10T02:24:15;1.02;;;0.45;;
18838;SDS011;9548;56.920;14.804;2023-06-10T02:26:42;1.58;;;0.50;;
18838;SDS011;9548;56.920;14.804;2023-06-10T02:29:11;0.75;;;0.40;;
18838;SDS011;9548;56.920;14.804;2023-06-10T02:31:38;0.45;;;0.38;;
18838;SDS011;9548;56.920;14.804;2023-06-10T02:34:06;0.80;;;0.50;;
18838;SDS011;9548;56.920;14.804;2023-06-10T02:36:35;8.73;;;0.60;;
18838;SDS011;9548;56.920;14.804;2023-06-10T02:39:02;0.95;;;0.50;;
18838;SDS011;9548;56.920;14.804;2023-06-10T02:41:29;0.88;;;0.50;;
18838;SDS011;9548;56.920;14.804;2023-06-10T02:43:56;1.10;;;0.60;;
18838;SDS011;9548;56.920;14.804;2023-06-10T02:46:24;0.60;;;0.50;;
18838;SDS011;9548;56.920;14.804;2023-06-10T02:48:51;0.30;;;0.30;;
18838;SDS011;9548;56.920;14.804;2023-06-10T02:51:18;1.10;;;0.43;;
18838;SDS011;9548;56.920;14.804;2023-06-10T02:53:45;0.50;;;0.40;;
18838;SDS011;9548;56.920;14.804;2023-06-10T02:56:13;1.40;;;0.38;;
18838;SDS011;9548;56.920;14.804;2023-06-10T02:58:42;1.05;;;0.40;;
18838;SDS011;9548;56.920;14.804;2023-06-10T03:01:09;0.40;;;0.40;;
18838;SDS011;9548;56.920;14.804;2023-06-10T03:03:37;1.60;;;0.65;;
18838;SDS011;9548;56.920;14.804;2023-06-10T03:06:05;1.15;;;0.40;;
18838;SDS011;9548;56.920;14.804;2023-06-10T03:08:33;2.17;;;0.50;;
18838;SDS011;9548;56.920;14.804;2023-06-10T03:11:00;0.90;;;0.40;;
18838;SDS011;9548;56.920;14.804;2023-06-10T03:13:27;1.88;;;0.60;;
18838;SDS011;9548;56.920;14.804;2023-06-10T03:15:54;1.02;;;0.60;;
18838;SDS011;9548;56.920;14.804;2023-06-10T03:18:21;0.57;;;0.30;;
18838;SDS011;9548;56.920;14.804;2023-06-10T03:20:53;0.80;;;0.43;;
18838;SDS011;9548;56.920;14.804;2023-06-10T03:23:20;2.42;;;0.40;;
18838;SDS011;9548;56.920;14.804;2023-06-10T03:25:47;0.30;;;0.30;;
18838;SDS011;9548;56.920;14.804;2023-06-10T03:28:13;0.85;;;0.47;;
18838;SDS011;9548;56.920;14.804;2023-06-10T03:30:40;2.08;;;0.50;;
18838;SDS011;9548;56.920;14.804;2023-06-10T03:33:07;0.55;;;0.43;;
18838;SDS011;9548;56.920;14.804;2023-06-10T03:35:34;2.05;;;0.50;;
18838;SDS011;9548;56.920;14.804;2023-06-10T03:38:02;2.22;;;0.52;;
18838;SDS011;9548;56.920;14.804;2023-06-10T03:40:29;0.57;;;0.45;;
18838;SDS011;9548;56.920;14.804;2023-06-10T03:42:57;2.83;;;0.60;;
18838;SDS011;9548;56.920;14.804;2023-06-10T03:45:23;0.60;;;0.50;;
18838;SDS011;9548;56.920;14.804;2023-06-10T03:47:53;1.27;;;0.60;;
18838;SDS011;9548;56.920;14.804;2023-06-10T03:50:20;1.75;;;0.50;;
18838;SDS011;9548;56.920;14.804;2023-06-10T03:52:48;2.97;;;0.40;;
18838;SDS011;9548;56.920;14.804;2023-06-10T03:55:17;2.03;;;0.50;;
18838;SDS011;9548;56.920;14.804;2023-06-10T03:57:46;1.45;;;0.32;;
18838;SDS011;9548;56.920;14.804;2023-06-10T04:00:14;2.75;;;0.60;;
18838;SDS011;9548;56.920;14.804;2023-06-10T04:02:42;0.30;;;0.30;;
18838;SDS011;9548;56.920;14.804;2023-06-10T04:05:13;0.30;;;0.30;;
18838;SDS011;9548;56.920;14.804;2023-06-10T04:07:41;0.45;;;0.25;;
18838;SDS011;9548;56.920;14.804;2023-06-10T04:10:09;1.45;;;0.40;;
18838;SDS011;9548;56.920;14.804;2023-06-10T04:12:38;0.60;;;0.40;;
18838;SDS011;9548;56.920;14.804;2023-06-10T04:15:06;5.60;;;0.47;;
18838;SDS011;9548;56.920;14.804;2023-06-10T04:17:33;3.22;;;0.60;;
18838;SDS011;9548;56.920;14.804;2023-06-10T04:20:00;0.73;;;0.30;;
18838;SDS011;9548;56.920;14.804;2023-06-10T04:22:28;1.25;;;0.50;;
18838;SDS011;9548;56.920;14.804;2023-06-10T04:24:55;0.93;;;0.60;;
18838;SDS011;9548;56.920;14.804;2023-06-10T04:27:22;1.08;;;0.57;;
18838;SDS011;9548;56.920;14.804;2023-06-10T04:29:50;0.30;;;0.30;;
18838;SDS011;9548;56.920;14.804;2023-06-10T04:32:17;1.77;;;0.40;;
18838;SDS011;9548;56.920;14.804;2023-06-10T04:34:44;0.45;;;0.20;;
18838;SDS011;9548;56.920;14.804;2023-06-10T04:37:11;0.77;;;0.40;;
18838;SDS011;9548;56.920;14.804;2023-06-10T04:39:38;2.00;;;0.40;;
18838;SDS011;9548;56.920;14.804;2023-06-10T04:42:06;3.05;;;0.45;;
18838;SDS011;9548;56.920;14.804;2023-06-10T04:44:33;5.78;;;0.43;;
18838;SDS011;9548;56.920;14.804;2023-06-10T04:47:01;2.05;;;0.40;;
18838;SDS011;9548;56.920;14.804;2023-06-10T04:49:28;2.08;;;0.70;;
18838;SDS011;9548;56.920;14.804;2023-06-10T04:51:56;1.30;;;0.40;;
18838;SDS011;9548;56.920;14.804;2023-06-10T04:54:24;2.13;;;0.50;;
18838;SDS011;9548;56.920;14.804;2023-06-10T04:56:51;0.50;;;0.30;;
18838;SDS011;9548;56.920;14.804;2023-06-10T04:59:19;1.65;;;0.40;;
18838;SDS011;9548;56.920;14.804;2023-06-10T05:01:46;3.10;;;0.43;;
18838;SDS011;9548;56.920;14.804;2023-06-10T05:04:14;1.40;;;0.50;;
18838;SDS011;9548;56.920;14.804;2023-06-10T05:06:41;2.72;;;0.50;;
18838;SDS011;9548;56.920;14.804;2023-06-10T05:09:09;3.00;;;0.50;;
18838;SDS011;9548;56.920;14.804;2023-06-10T05:11:36;1.58;;;0.30;;
18838;SDS011;9548;56.920;14.804;2023-06-10T05:14:02;1.60;;;0.50;;
18838;SDS011;9548;56.920;14.804;2023-06-10T05:16:30;1.80;;;0.30;;
18838;SDS011;9548;56.920;14.804;2023-06-10T05:18:57;0.80;;;0.30;;
18838;SDS011;9548;56.920;14.804;2023-06-10T05:21:25;0.50;;;0.30;;
18838;SDS011;9548;56.920;14.804;2023-06-10T05:23:52;0.50;;;0.40;;
18838;SDS011;9548;56.920;14.804;2023-06-10T05:26:19;0.20;;;0.20;;
18838;SDS011;9548;56.920;14.804;2023-06-10T05:28:46;1.13;;;0.40;;
18838;SDS011;9548;56.920;14.804;2023-06-10T05:31:13;0.55;;;0.30;;
18838;SDS011;9548;56.920;14.804;2023-06-10T05:33:40;1.65;;;0.40;;
18838;SDS011;9548;56.920;14.804;2023-06-10T05:36:07;1.48;;;0.40;;
18838;SDS011;9548;56.920;14.804;2023-06-10T05:38:35;1.52;;;0.40;;
18838;SDS011;9548;56.920;14.804;2023-06-10T05:41:02;3.70;;;0.55;;
18838;SDS011;9548;56.920;14.804;2023-06-10T05:43:29;2.20;;;0.50;;
18838;SDS011;9548;56.920;14.804;2023-06-10T05:45:56;3.08;;;0.50;;
18838;SDS011;9548;56.920;14.804;2023-06-10T05:48:23;4.55;;;0.50;;
18838;SDS011;9548;56.920;14.804;2023-06-10T05:50:50;0.75;;;0.30;;
18838;SDS011;9548;56.920;14.804;2023-06-10T05:53:17;0.65;;;0.40;;
18838;SDS011;9548;56.920;14.804;2023-06-10T05:55:45;0.30;;;0.30;;
18838;SDS011;9548;56.920;14.804;2023-06-10T05:58:13;2.58;;;0.40;;
18838;SDS011;9548;56.920;14.804;2023-06-10T06:00:40;1.70;;;0.40;;
18838;SDS011;9548;56.920;14.804;2023-06-10T06:03:07;2.25;;;0.68;;
18838;SDS011;9548;56.920;14.804;2023-06-10T06:05:34;0.77;;;0.22;;
18838;SDS011;9548;56.920;14.804;2023-06-10T06:08:03;0.30;;;0.30;;
18838;SDS011;9548;56.920;14.804;2023-06-10T06:10:30;0.60;;;0.43;;
18838;SDS011;9548;56.920;14.804;2023-06-10T06:12:59;0.40;;;0.40;;
18838;SDS011;9548;56.920;14.804;2023-06-10T06:15:26;0.50;;;0.50;;
18838;SDS011;9548;56.920;14.804;2023-06-10T06:17:53;2.13;;;0.52;;
18838;SDS011;9548;56.920;14.804;2023-06-10T06:20:21;1.02;;;0.30;;
18838;SDS011;9548;56.920;14.804;2023-06-10T06:22:48;1.27;;;0.35;;
18838;SDS011;9548;56.920;14.804;2023-06-10T06:25:15;2.15;;;0.35;;
18838;SDS011;9548;56.920;14.804;2023-06-10T06:27:42;1.10;;;0.30;;
18838;SDS011;9548;56.920;14.804;2023-06-10T06:30:10;1.48;;;0.30;;
18838;SDS011;9548;56.920;14.804;2023-06-10T06:32:38;0.60;;;0.30;;
18838;SDS011;9548;56.920;14.804;2023-06-10T06:35:05;3.30;;;0.30;;
18838;SDS011;9548;56.920;14.804;2023-06-10T06:37:33;0.90;;;0.30;;
18838;SDS011;9548;56.920;14.804;2023-06-10T06:40:00;0.80;;;0.30;;
18838;SDS011;9548;56.920;14.804;2023-06-10T06:42:27;1.67;;;0.50;;
18838;SDS011;9548;56.920;14.804;2023-06-10T06:44:54;3.50;;;0.50;;
18838;SDS011;9548;56.920;14.804;2023-06-10T06:47:22;0.70;;;0.40;;
18838;SDS011;9548;56.920;14.804;2023-06-10T06:49:49;0.50;;;0.22;;
18838;SDS011;9548;56.920;14.804;2023-06-10T06:52:15;0.30;;;0.30;;
18838;SDS011;9548;56.920;14.804;2023-06-10T06:54:42;0.45;;;0.30;;
18838;SDS011;9548;56.920;14.804;2023-06-10T06:57:09;0.63;;;0.30;;
18838;SDS011;9548;56.920;14.804;2023-06-10T06:59:36;3.80;;;0.40;;
18838;SDS011;9548;56.920;14.804;2023-06-10T07:02:03;1.00;;;0.40;;
18838;SDS011;9548;56.920;14.804;2023-06-10T07:04:32;3.92;;;0.40;;
18838;SDS011;9548;56.920;14.804;2023-06-10T07:06:59;5.57;;;0.43;;
18838;SDS011;9548;56.920;14.804;2023-06-10T07:09:25;3.00;;;0.50;;
18838;SDS011;9548;56.920;14.804;2023-06-10T07:11:53;1.98;;;0.40;;
18838;SDS011;9548;56.920;14.804;2023-06-10T07:14:20;0.45;;;0.40;;
18838;SDS011;9548;56.920;14.804;2023-06-10T07:16:47;1.02;;;0.30;;
18838;SDS011;9548;56.920;14.804;2023-06-10T07:19:14;3.30;;;0.50;;
18838;SDS011;9548;56.920;14.804;2023-06-10T07:21:42;0.68;;;0.38;;
18838;SDS011;9548;56.920;14.804;2023-06-10T07:24:09;6.28;;;0.40;;
18838;SDS011;9548;56.920;14.804;2023-06-10T07:26:36;3.42;;;0.43;;
18838;SDS011;9548;56.920;14.804;2023-06-10T07:29:03;1.58;;;0.50;;
18838;SDS011;9548;56.920;14.804;2023-06-10T07:31:30;1.08;;;0.40;;
18838;SDS011;9548;56.920;14.804;2023-06-10T07:33:57;1.90;;;0.40;;
18838;SDS011;9548;56.920;14.804;2023-06-10T07:36:24;2.05;;;0.35;;
18838;SDS011;9548;56.920;14.804;2023-06-10T07:38:53;0.65;;;0.32;;
18838;SDS011;9548;56.920;14.804;2023-06-10T07:41:20;1.23;;;0.40;;
18838;SDS011;9548;56.920;14.804;2023-06-10T07:43:50;2.80;;;0.47;;
18838;SDS011;9548;56.920;14.804;2023-06-10T07:46:19;1.13;;;0.40;;
18838;SDS011;9548;56.920;14.804;2023-06-10T07:48:46;1.55;;;0.47;;
18838;SDS011;9548;56.920;14.804;2023-06-10T07:51:14;0.50;;;0.30;;
18838;SDS011;9548;56.920;14.804;2023-06-10T07:53:42;4.63;;;0.50;;
18838;SDS011;9548;56.920;14.804;2023-06-10T07:56:10;2.30;;;0.47;;
18838;SDS011;9548;56.920;14.804;2023-06-10T07:58:37;0.70;;;0.50;;
18838;SDS011;9548;56.920;14.804;2023-06-10T08:01:04;1.92;;;0.60;;
18838;SDS011;9548;56.920;14.804;2023-06-10T08:03:31;1.27;;;0.50;;
18838;SDS011;9548;56.920;14.804;2023-06-10T08:05:58;1.23;;;0.70;;
18838;SDS011;9548;56.920;14.804;2023-06-10T08:08:26;0.63;;;0.40;;
18838;SDS011;9548;56.920;14.804;2023-06-10T08:10:52;2.05;;;0.57;;
18838;SDS011;9548;56.920;14.804;2023-06-10T08:13:21;1.75;;;0.50;;
18838;SDS011;9548;56.920;14.804;2023-06-10T08:15:48;1.73;;;0.70;;
18838;SDS011;9548;56.920;14.804;2023-06-10T08:18:15;0.68;;;0.57;;
18838;SDS011;9548;56.920;14.804;2023-06-10T08:20:42;1.60;;;0.50;;
18838;SDS011;9548;56.920;14.804;2023-06-10T08:23:09;1.52;;;0.40;;
18838;SDS011;9548;56.920;14.804;2023-06-10T08:25:36;2.28;;;0.63;;
18838;SDS011;9548;56.920;14.804;2023-06-10T08:28:03;2.42;;;0.60;;
18838;SDS011;9548;56.920;14.804;2023-06-10T08:30:31;2.80;;;0.60;;
18838;SDS011;9548;56.920;14.804;2023-06-10T08:32:58;1.65;;;0.60;;
18838;SDS011;9548;56.920;14.804;2023-06-10T08:35:26;0.55;;;0.55;;
18838;SDS011;9548;56.920;14.804;2023-06-10T08:37:52;1.35;;;0.70;;
18838;SDS011;9548;56.920;14.804;2023-06-10T08:40:19;1.00;;;0.40;;
18838;SDS011;9548;56.920;14.804;2023-06-10T08:42:48;5.75;;;0.60;;
18838;SDS011;9548;56.920;14.804;2023-06-10T08:45:20;5.57;;;0.77;;
18838;SDS011;9548;56.920;14.804;2023-06-10T08:47:51;4.07;;;0.75;;
18838;SDS011;9548;56.920;14.804;2023-06-10T08:50:20;7.95;;;0.80;;
18838;SDS011;9548;56.920;14.804;2023-06-10T08:52:48;1.17;;;0.70;;
18838;SDS011;9548;56.920;14.804;2023-06-10T08:55:18;1.38;;;0.70;;
18838;SDS011;9548;56.920;14.804;2023-06-10T08:57:51;3.60;;;0.70;;
18838;SDS011;9548;56.920;14.804;2023-06-10T09:00:18;3.83;;;0.70;;
18838;SDS011;9548;56.920;14.804;2023-06-10T09:02:45;0.73;;;0.60;;
18838;SDS011;9548;56.920;14.804;2023-06-10T09:05:14;4.03;;;0.70;;
18838;SDS011;9548;56.920;14.804;2023-06-10T09:07:41;3.40;;;0.88;;
18838;SDS011;9548;56.920;14.804;2023-06-10T09:10:10;1.92;;;0.70;;
18838;SDS011;9548;56.920;14.804;2023-06-10T09:12:38;0.75;;;0.57;;
18838;SDS011;9548;56.920;14.804;2023-06-10T09:15:05;2.83;;;0.60;;
18838;SDS011;9548;56.920;14.804;2023-06-10T09:17:33;2.95;;;0.80;;
18838;SDS011;9548;56.920;14.804;2023-06-10T09:20:01;1.15;;;0.80;;
18838;SDS011;9548;56.920;14.804;2023-06-10T09:22:29;1.23;;;0.65;;
18838;SDS011;9548;56.920;14.804;2023-06-10T09:25:01;1.80;;;0.70;;
18838;SDS011;9548;56.920;14.804;2023-06-10T09:27:30;7.50;;;0.73;;
18838;SDS011;9548;56.920;14.804;2023-06-10T09:29:57;2.38;;;0.60;;
18838;SDS011;9548;56.920;14.804;2023-06-10T09:32:25;2.72;;;0.82;;
18838;SDS011;9548;56.920;14.804;2023-06-10T09:34:52;2.67;;;0.60;;
18838;SDS011;9548;56.920;14.804;2023-06-10T09:37:19;3.20;;;0.80;;
18838;SDS011;9548;56.920;14.804;2023-06-10T09:40:01;0.50;;;0.50;;
18838;SDS011;9548;56.920;14.804;2023-06-10T09:42:32;1.00;;;0.70;;
18838;SDS011;9548;56.920;14.804;2023-06-10T09:45:00;3.08;;;0.60;;
18838;SDS011;9548;56.920;14.804;2023-06-10T09:47:27;3.60;;;0.70;;
18838;SDS011;9548;56.920;14.804;2023-06-10T09:49:54;1.35;;;0.70;;
18838;SDS011;9548;56.920;14.804;2023-06-10T09:52:21;3.15;;;0.85;;
18838;SDS011;9548;56.920;14.804;2023-06-10T09:54:49;1.65;;;0.60;;
18838;SDS011;9548;56.920;14.804;2023-06-10T09:57:18;3.05;;;0.90;;
18838;SDS011;9548;56.920;14.804;2023-06-10T09:59:45;2.13;;;0.70;;
18838;SDS011;9548;56.920;14.804;2023-06-10T10:02:16;4.38;;;0.70;;
18838;SDS011;9548;56.920;14.804;2023-06-10T10:04:43;1.45;;;0.60;;
18838;SDS011;9548;56.920;14.804;2023-06-10T10:07:10;3.50;;;0.70;;
18838;SDS011;9548;56.920;14.804;2023-06-10T10:09:37;2.13;;;0.82;;
18838;SDS011;9548;56.920;14.804;2023-06-10T10:12:05;3.05;;;0.73;;
18838;SDS011;9548;56.920;14.804;2023-06-10T10:14:37;0.60;;;0.60;;
18838;SDS011;9548;56.920;14.804;2023-06-10T10:17:05;0.77;;;0.77;;
18838;SDS011;9548;56.920;14.804;2023-06-10T10:19:37;0.73;;;0.57;;
18838;SDS011;9548;56.920;14.804;2023-06-10T10:22:14;2.78;;;0.80;;
18838;SDS011;9548;56.920;14.804;2023-06-10T10:24:46;5.15;;;0.73;;
18838;SDS011;9548;56.920;14.804;2023-06-10T10:27:17;2.33;;;0.70;;
18838;SDS011;9548;56.920;14.804;2023-06-10T10:29:49;4.75;;;0.80;;
18838;SDS011;9548;56.920;14.804;2023-06-10T10:32:20;1.20;;;0.80;;
18838;SDS011;9548;56.920;14.804;2023-06-10T10:34:56;3.15;;;0.73;;
18838;SDS011;9548;56.920;14.804;2023-06-10T10:37:30;3.20;;;0.80;;
18838;SDS011;9548;56.920;14.804;2023-06-10T10:39:57;2.33;;;0.90;;
18838;SDS011;9548;56.920;14.804;2023-06-10T10:42:26;2.55;;;0.70;;
18838;SDS011;9548;56.920;14.804;2023-06-10T10:44:55;3.30;;;0.65;;
18838;SDS011;9548;56.920;14.804;2023-06-10T10:47:22;2.58;;;0.80;;
18838;SDS011;9548;56.920;14.804;2023-06-10T10:49:55;0.55;;;0.55;;
18838;SDS011;9548;56.920;14.804;2023-06-10T10:52:24;0.68;;;0.60;;
18838;SDS011;9548;56.920;14.804;2023-06-10T10:54:52;1.92;;;0.63;;
18838;SDS011;9548;56.920;14.804;2023-06-10T10:57:20;1.65;;;0.60;;
18838;SDS011;9548;56.920;14.804;2023-06-10T10:59:52;4.85;;;0.60;;
18838;SDS011;9548;56.920;14.804;2023-06-10T11:02:37;4.63;;;1.00;;
18838;SDS011;9548;56.920;14.804;2023-06-10T11:05:08;0.70;;;0.35;;
18838;SDS011;9548;56.920;14.804;2023-06-10T11:07:36;2.30;;;0.60;;
18838;SDS011;9548;56.920;14.804;2023-06-10T11:10:05;1.95;;;0.70;;
18838;SDS011;9548;56.920;14.804;2023-06-10T11:12:40;2.45;;;0.80;;
18838;SDS011;9548;56.920;14.804;2023-06-10T11:15:09;1.60;;;0.50;;
18838;SDS011;9548;56.920;14.804;2023-06-10T11:17:36;5.00;;;0.57;;
18838;SDS011;9548;56.920;14.804;2023-06-10T11:20:04;4.53;;;0.60;;
18838;SDS011;9548;56.920;14.804;2023-06-10T11:22:32;1.98;;;0.90;;
18838;SDS011;9548;56.920;14.804;2023-06-10T11:24:59;2.85;;;0.65;;
18838;SDS011;9548;56.920;14.804;2023-06-10T11:27:26;6.00;;;0.70;;
18838;SDS011;9548;56.920;14.804;2023-06-10T11:30:18;1.15;;;0.60;;
18838;SDS011;9548;56.920;14.804;2023-06-10T11:32:49;0.77;;;0.50;;
18838;SDS011;9548;56.920;14.804;2023-06-10T11:35:19;4.65;;;0.60;;
18838;SDS011;9548;56.920;14.804;2023-06-10T11:37:47;3.03;;;0.75;;
18838;SDS011;9548;56.920;14.804;2023-06-10T11:40:14;6.20;;;1.00;;
18838;SDS011;9548;56.920;14.804;2023-06-10T11:42:42;2.35;;;0.95;;
18838;SDS011;9548;56.920;14.804;2023-06-10T11:45:09;1.40;;;0.75;;
18838;SDS011;9548;56.920;14.804;2023-06-10T11:47:42;1.88;;;0.60;;
18838;SDS011;9548;56.920;14.804;2023-06-10T11:50:27;5.25;;;1.20;;
18838;SDS011;9548;56.920;14.804;2023-06-10T11:52:55;3.70;;;0.80;;
18838;SDS011;9548;56.920;14.804;2023-06-10T11:55:23;1.92;;;0.65;;
18838;SDS011;9548;56.920;14.804;2023-06-10T11:57:50;3.83;;;0.68;;
18838;SDS011;9548;56.920;14.804;2023-06-10T12:00:22;4.10;;;0.80;;
18838;SDS011;9548;56.920;14.804;2023-06-10T12:02:55;6.13;;;0.70;;
18838;SDS011;9548;56.920;14.804;2023-06-10T12:05:23;1.08;;;0.60;;
18838;SDS011;9548;56.920;14.804;2023-06-10T12:08:05;5.47;;;0.90;;
18838;SDS011;9548;56.920;14.804;2023-06-10T12:10:38;2.10;;;0.70;;
18838;SDS011;9548;56.920;14.804;2023-06-10T12:13:06;2.72;;;0.70;;
18838;SDS011;9548;56.920;14.804;2023-06-10T12:15:33;5.50;;;0.85;;
18838;SDS011;9548;56.920;14.804;2023-06-10T12:18:01;5.10;;;0.60;;
18838;SDS011;9548;56.920;14.804;2023-06-10T12:20:29;4.30;;;0.80;;
18838;SDS011;9548;56.920;14.804;2023-06-10T12:22:58;1.65;;;0.80;;
18838;SDS011;9548;56.920;14.804;2023-06-10T12:25:26;3.65;;;0.70;;
18838;SDS011;9548;56.920;14.804;2023-06-10T12:27:55;2.22;;;0.80;;
18838;SDS011;9548;56.920;14.804;2023-06-10T12:30:24;6.60;;;0.82;;
18838;SDS011;9548;56.920;14.804;2023-06-10T12:32:53;3.17;;;0.60;;
18838;SDS011;9548;56.920;14.804;2023-06-10T12:35:22;1.95;;;0.52;;
18838;SDS011;9548;56.920;14.804;2023-06-10T12:37:56;2.35;;;0.90;;
18838;SDS011;9548;56.920;14.804;2023-06-10T12:40:25;0.63;;;0.63;;
18838;SDS011;9548;56.920;14.804;2023-06-10T12:42:53;0.80;;;0.70;;
18838;SDS011;9548;56.920;14.804;2023-06-10T12:45:27;1.73;;;0.73;;
18838;SDS011;9548;56.920;14.804;2023-06-10T12:48:04;0.80;;;0.73;;
18838;SDS011;9548;56.920;14.804;2023-06-10T12:50:34;0.90;;;0.80;;
18838;SDS011;9548;56.920;14.804;2023-06-10T12:53:02;0.80;;;0.75;;
18838;SDS011;9548;56.920;14.804;2023-06-10T12:55:29;2.42;;;0.68;;
18838;SDS011;9548;56.920;14.804;2023-06-10T12:57:56;3.17;;;0.70;;
18838;SDS011;9548;56.920;14.804;2023-06-10T13:00:23;2.72;;;0.70;;
18838;SDS011;9548;56.920;14.804;2023-06-10T13:02:54;3.72;;;0.85;;
18838;SDS011;9548;56.920;14.804;2023-06-10T13:05:21;1.58;;;0.90;;
18838;SDS011;9548;56.920;14.804;2023-06-10T13:07:49;1.17;;;0.88;;
18838;SDS011;9548;56.920;14.804;2023-06-10T13:10:16;2.20;;;0.70;;
18838;SDS011;9548;56.920;14.804;2023-06-10T13:12:44;0.60;;;0.60;;
18838;SDS011;9548;56.920;14.804;2023-06-10T13:15:11;1.83;;;0.70;;
18838;SDS011;9548;56.920;14.804;2023-06-10T13:17:39;0.90;;;0.70;;
18838;SDS011;9548;56.920;14.804;2023-06-10T13:20:07;1.50;;;0.80;;
18838;SDS011;9548;56.920;14.804;2023-06-10T13:22:34;0.70;;;0.70;;
18838;SDS011;9548;56.920;14.804;2023-06-10T13:25:03;2.28;;;0.80;;
18838;SDS011;9548;56.920;14.804;2023-06-10T13:27:31;1.55;;;0.90;;
18838;SDS011;9548;56.920;14.804;2023-06-10T13:29:58;2.30;;;0.90;;
18838;SDS011;9548;56.920;14.804;2023-06-10T13:32:25;0.70;;;0.70;;
18838;SDS011;9548;56.920;14.804;2023-06-10T13:34:52;1.27;;;0.80;;
18838;SDS011;9548;56.920;14.804;2023-06-10T13:37:19;3.08;;;0.80;;
18838;SDS011;9548;56.920;14.804;2023-06-10T13:39:46;1.50;;;0.90;;
18838;SDS011;9548;56.920;14.804;2023-06-10T13:42:14;4.03;;;1.13;;
18838;SDS011;9548;56.920;14.804;2023-06-10T13:44:41;5.88;;;0.80;;
18838;SDS011;9548;56.920;14.804;2023-06-10T13:47:08;1.33;;;0.70;;
18838;SDS011;9548;56.920;14.804;2023-06-10T13:49:35;1.27;;;0.73;;
18838;SDS011;9548;56.920;14.804;2023-06-10T13:52:03;2.33;;;1.02;;
18838;SDS011;9548;56.920;14.804;2023-06-10T13:54:30;1.52;;;1.10;;
18838;SDS011;9548;56.920;14.804;2023-06-10T13:56:57;2.40;;;1.00;;
18838;SDS011;9548;56.920;14.804;2023-06-10T13:59:26;1.55;;;0.73;;
18838;SDS011;9548;56.920;14.804;2023-06-10T14:01:53;1.23;;;0.90;;
18838;SDS011;9548;56.920;14.804;2023-06-10T14:04:20;2.45;;;0.90;;
18838;SDS011;9548;56.920;14.804;2023-06-10T14:06:47;3.33;;;0.80;;
18838;SDS011;9548;56.920;14.804;2023-06-10T14:09:14;1.48;;;0.80;;
18838;SDS011;9548;56.920;14.804;2023-06-10T14:11:41;0.90;;;0.77;;
18838;SDS011;9548;56.920;14.804;2023-06-10T14:14:08;4.10;;;1.05;;
18838;SDS011;9548;56.920;14.804;2023-06-10T14:16:37;0.95;;;0.70;;
18838;SDS011;9548;56.920;14.804;2023-06-10T14:19:04;3.92;;;0.80;;
18838;SDS011;9548;56.920;14.804;2023-06-10T14:21:30;0.60;;;0.60;;
18838;SDS011;9548;56.920;14.804;2023-06-10T14:23:57;0.80;;;0.80;;
18838;SDS011;9548;56.920;14.804;2023-06-10T14:26:24;1.02;;;0.80;;
18838;SDS011;9548;56.920;14.804;2023-06-10T14:28:51;0.80;;;0.80;;
18838;SDS011;9548;56.920;14.804;2023-06-10T14:31:18;2.00;;;1.10;;
18838;SDS011;9548;56.920;14.804;2023-06-10T14:33:46;2.03;;;0.80;;
18838;SDS011;9548;56.920;14.804;2023-06-10T14:36:13;0.70;;;0.70;;
18838;SDS011;9548;56.920;14.804;2023-06-10T14:38:40;0.50;;;0.50;;
18838;SDS011;9548;56.920;14.804;2023-06-10T14:41:07;1.30;;;0.70;;
18838;SDS011;9548;56.920;14.804;2023-06-10T14:43:33;0.80;;;0.70;;
18838;SDS011;9548;56.920;14.804;2023-06-10T14:46:00;3.88;;;0.98;;
18838;SDS011;9548;56.920;14.804;2023-06-10T14:48:27;2.78;;;0.70;;
18838;SDS011;9548;56.920;14.804;2023-06-10T14:50:55;3.55;;;1.02;;
18838;SDS011;9548;56.920;14.804;2023-06-10T14:53:22;1.10;;;0.75;;